createdAt,value
2023-02-12T00:02:26.642Z,37.97
2023-02-12T00:05:16.626Z,37.90
2023-02-12T00:08:03.851Z,38.33
2023-02-12T00:10:51.078Z,36.22
2023-02-12T00:13:38.547Z,36.75
2023-02-12T00:16:29.347Z,36.88
2023-02-12T00:19:19.004Z,35.67
2023-02-12T00:22:08.649Z,36.97
2023-02-12T00:24:56.491Z,36.45
2023-02-12T00:27:43.610Z,36.60
2023-02-12T00:30:30.724Z,35.78
2023-02-12T00:33:17.971Z,35.40
2023-02-12T00:36:06.486Z,35.85
2023-02-12T00:38:57.412Z,37.13
2023-02-12T00:41:44.533Z,35.58
2023-02-12T00:44:34.499Z,36.53
2023-02-12T00:47:21.687Z,35.22
2023-02-12T00:50:09.279Z,36.67
2023-02-12T00:52:56.414Z,36.67
2023-02-12T00:55:43.738Z,36.28
2023-02-12T00:58:31.001Z,37.92
2023-02-12T01:01:18.515Z,39.17
2023-02-12T01:04:05.790Z,36.13
2023-02-12T01:06:52.958Z,35.15
2023-02-12T01:09:40.201Z,36.97
2023-02-12T01:12:27.357Z,37.08
2023-02-12T01:15:15.460Z,36.13
2023-02-12T01:18:02.794Z,37.45
2023-02-12T01:20:49.923Z,36.47
2023-02-12T01:23:37.110Z,38.38
2023-02-12T01:26:28.183Z,37.45
2023-02-12T01:29:15.402Z,37.25
2023-02-12T01:32:02.800Z,37.70
2023-02-12T01:34:50.208Z,37.40
2023-02-12T01:37:38.380Z,37.78
2023-02-12T01:40:25.626Z,38.13
2023-02-12T01:43:13.250Z,40.25
2023-02-12T01:46:00.935Z,39.92
2023-02-12T01:48:50.584Z,37.65
2023-02-12T01:51:38.051Z,39.20
2023-02-12T01:54:26.932Z,38.33
2023-02-12T01:57:16.404Z,39.95
2023-02-12T02:00:07.869Z,41.15
2023-02-12T02:02:58.585Z,41.67
2023-02-12T02:06:01.340Z,40.35
2023-02-12T02:08:48.992Z,34.70
2023-02-12T02:11:54.595Z,35.67
2023-02-12T02:14:42.256Z,36.85
2023-02-12T02:17:41.058Z,34.03
2023-02-12T02:21:04.688Z,36.88
2023-02-12T02:24:12.099Z,37.75
2023-02-12T02:27:17.801Z,32.88
2023-02-12T02:30:11.187Z,36.75
2023-02-12T02:33:13.758Z,37.50
2023-02-12T02:36:12.877Z,37.80
2023-02-12T02:39:21.231Z,42.83
2023-02-12T02:42:23.054Z,39.30
2023-02-12T02:45:18.550Z,40.83
2023-02-12T02:48:10.190Z,40.67
2023-02-12T02:51:07.729Z,38.38
2023-02-12T02:54:15.943Z,38.65
2023-02-12T02:57:13.963Z,37.28
2023-02-12T03:00:15.691Z,38.33
2023-02-12T03:03:10.335Z,39.85
2023-02-12T03:06:07.719Z,40.45
2023-02-12T03:09:02.148Z,39.03
2023-02-12T03:11:53.373Z,36.38
2023-02-12T03:14:46.551Z,40.60
2023-02-12T03:17:41.480Z,42.13
2023-02-12T03:20:36.168Z,43.67
2023-02-12T03:23:27.837Z,45.17
2023-02-12T03:26:23.580Z,30.98
2023-02-12T03:29:11.334Z,45.15
2023-02-12T03:32:07.080Z,46.30
2023-02-12T03:34:58.270Z,45.13
2023-02-12T03:38:15.304Z,46.30
2023-02-12T03:41:20.783Z,44.38
2023-02-12T03:44:13.988Z,47.33
2023-02-12T03:47:28.233Z,48.17
2023-02-12T03:50:27.293Z,46.45
2023-02-12T03:53:17.595Z,45.47
2023-02-12T03:56:24.463Z,47.67
2023-02-12T03:59:14.806Z,46.63
2023-02-12T04:02:02.083Z,48.78
2023-02-12T04:04:49.450Z,48.08
2023-02-12T04:07:37.702Z,47.58
2023-02-12T04:10:42.996Z,48.35
2023-02-12T04:13:50.991Z,46.38
2023-02-12T04:16:45.666Z,48.70
2023-02-12T04:20:10.769Z,42.83
2023-02-12T04:23:03.720Z,46.15
2023-02-12T04:25:59.266Z,49.22
2023-02-12T04:29:11.752Z,47.72
2023-02-12T04:32:07.200Z,49.67
2023-02-12T04:35:06.365Z,47.80
2023-02-12T04:38:05.519Z,47.50
2023-02-12T04:40:53.414Z,45.53
2023-02-12T04:43:40.520Z,44.75
2023-02-12T04:46:27.689Z,46.10
2023-02-12T04:49:17.467Z,47.10
2023-02-12T04:52:04.786Z,46.97
2023-02-12T04:54:51.930Z,48.53
2023-02-12T04:57:41.808Z,49.92
2023-02-12T05:00:28.966Z,52.15
2023-02-12T05:03:16.168Z,52.28
2023-02-12T05:06:09.958Z,55.10
2023-02-12T05:08:57.943Z,54.08
2023-02-12T05:11:45.839Z,54.80
2023-02-12T05:14:35.095Z,54.67
2023-02-12T05:17:25.798Z,56.20
2023-02-12T05:20:14.039Z,56.58
2023-02-12T05:23:04.319Z,57.80
2023-02-12T05:25:51.531Z,62.92
2023-02-12T05:28:38.970Z,62.22
2023-02-12T05:31:28.559Z,68.47
2023-02-12T05:34:15.955Z,75.75
2023-02-12T05:37:03.576Z,74.35
2023-02-12T05:39:53.855Z,74.03
2023-02-12T05:42:41.057Z,80.10
2023-02-12T05:45:29.362Z,77.65
2023-02-12T05:48:18.868Z,81.78
2023-02-12T05:51:12.183Z,79.35
2023-02-12T05:54:03.692Z,81.85
2023-02-12T05:56:50.914Z,78.32
2023-02-12T05:59:38.201Z,79.53
2023-02-12T06:02:25.452Z,79.85
2023-02-12T06:05:12.625Z,79.35
2023-02-12T06:07:59.835Z,78.65
2023-02-12T06:10:46.994Z,77.53
2023-02-12T06:13:35.026Z,77.68
2023-02-12T06:16:27.406Z,85.05
2023-02-12T06:19:14.999Z,85.32
2023-02-12T06:22:04.296Z,88.65
2023-02-12T06:24:53.582Z,68.15
2023-02-12T06:27:40.866Z,66.00
2023-02-12T06:30:28.029Z,66.80
2023-02-12T06:33:15.314Z,66.03
2023-02-12T06:36:04.689Z,69.03
2023-02-12T06:38:52.653Z,76.20
2023-02-12T06:41:39.967Z,77.28
2023-02-12T06:44:27.195Z,79.05
2023-02-12T06:47:14.805Z,82.07
2023-02-12T06:50:04.677Z,86.20
2023-02-12T06:52:51.915Z,81.43
2023-02-12T06:55:39.159Z,90.13
2023-02-12T06:58:26.298Z,88.38
2023-02-12T07:01:19.225Z,92.65
2023-02-12T07:04:06.410Z,97.30
2023-02-12T07:06:53.610Z,97.53
2023-02-12T07:09:40.865Z,97.40
2023-02-12T07:12:36.981Z,97.97
2023-02-12T07:15:24.124Z,92.07
2023-02-12T07:18:11.219Z,96.85
2023-02-12T07:21:03.148Z,103.15
2023-02-12T07:23:51.982Z,105.65
2023-02-12T07:26:40.094Z,105.28
2023-02-12T07:29:27.260Z,104.95
2023-02-12T07:32:14.540Z,85.78
2023-02-12T07:35:02.132Z,83.55
2023-02-12T07:37:49.480Z,86.60
2023-02-12T07:40:38.930Z,87.95
2023-02-12T07:43:26.056Z,87.97
2023-02-12T07:46:23.861Z,93.45
2023-02-12T07:49:15.756Z,100.18
2023-02-12T07:52:02.924Z,100.00
2023-02-12T07:54:50.214Z,95.45
2023-02-12T07:57:37.347Z,93.72
2023-02-12T08:00:24.650Z,88.43
2023-02-12T08:03:11.760Z,84.45
2023-02-12T08:05:58.952Z,82.18
2023-02-12T08:08:47.556Z,79.75
2023-02-12T08:11:38.719Z,76.45
2023-02-12T08:14:33.132Z,70.68
2023-02-12T08:17:23.607Z,66.82
2023-02-12T08:20:14.145Z,65.53
2023-02-12T08:23:24.616Z,62.63
2023-02-12T08:26:38.902Z,63.00
2023-02-12T08:29:32.180Z,63.65
2023-02-12T08:32:19.364Z,65.63
2023-02-12T08:35:07.312Z,65.72
2023-02-12T08:37:56.840Z,61.72
2023-02-12T08:40:44.058Z,60.95
2023-02-12T08:43:34.071Z,57.33
2023-02-12T08:46:24.047Z,85.97
2023-02-12T08:49:20.746Z,65.55
2023-02-12T08:52:08.093Z,55.15
2023-02-12T08:54:57.888Z,55.22
2023-02-12T08:57:45.319Z,55.22
2023-02-12T09:00:32.744Z,52.90
2023-02-12T09:03:20.279Z,51.15
2023-02-12T09:06:13.064Z,52.25
2023-02-12T09:09:00.461Z,50.85
2023-02-12T09:11:49.442Z,51.17
2023-02-12T09:14:39.079Z,47.53
2023-02-12T09:17:27.543Z,46.42
2023-02-12T09:20:14.982Z,44.97
2023-02-12T09:23:02.396Z,43.55
2023-02-12T09:25:51.751Z,42.33
2023-02-12T09:28:39.998Z,39.20
2023-02-12T09:31:36.381Z,38.17
2023-02-12T09:34:23.831Z,40.75
2023-02-12T09:37:11.174Z,40.58
2023-02-12T09:40:00.558Z,38.03
2023-02-12T09:43:09.082Z,37.30
2023-02-12T09:46:13.815Z,34.15
2023-02-12T09:49:12.444Z,34.33
2023-02-12T09:52:03.660Z,32.63
2023-02-12T09:54:51.367Z,34.75
2023-02-12T09:57:38.868Z,31.20
2023-02-12T10:00:31.806Z,31.25
2023-02-12T10:03:19.281Z,26.73
2023-02-12T10:06:13.544Z,27.23
2023-02-12T10:09:06.820Z,26.95
2023-02-12T10:11:58.361Z,23.45
2023-02-12T10:14:59.486Z,21.98
2023-02-12T10:18:13.152Z,20.45
2023-02-12T10:21:08.950Z,19.20
2023-02-12T10:24:27.445Z,19.40
2023-02-12T10:27:31.093Z,16.23
2023-02-12T10:30:43.826Z,11.32
2023-02-12T10:33:45.429Z,14.50
2023-02-12T10:36:50.193Z,12.82
2023-02-12T10:40:06.280Z,12.27
2023-02-12T10:42:54.377Z,11.40
2023-02-12T10:45:43.591Z,12.52
2023-02-12T10:48:33.005Z,13.20
2023-02-12T10:51:41.102Z,13.57
2023-02-12T10:54:38.837Z,13.23
2023-02-12T10:57:38.238Z,12.23
2023-02-12T11:00:40.354Z,9.88
2023-02-12T11:03:44.120Z,9.55
2023-02-12T11:06:34.873Z,8.98
2023-02-12T11:09:48.192Z,9.30
2023-02-12T11:12:41.054Z,8.55
2023-02-12T11:15:36.632Z,8.73
2023-02-12T11:18:26.363Z,12.02
2023-02-12T11:21:36.091Z,10.90
2023-02-12T11:24:31.662Z,10.82
2023-02-12T11:27:25.110Z,12.27
2023-02-12T11:30:20.446Z,10.80
2023-02-12T11:33:32.197Z,10.32
2023-02-12T11:36:26.226Z,8.90
2023-02-12T11:39:30.306Z,9.23
2023-02-12T11:42:24.561Z,9.45
2023-02-12T11:45:28.048Z,10.23
2023-02-12T11:48:22.940Z,10.50
2023-02-12T11:51:24.536Z,10.20
2023-02-12T11:54:24.137Z,10.75
2023-02-12T11:57:47.236Z,11.77
2023-02-12T12:00:47.346Z,13.68
2023-02-12T12:03:49.205Z,13.57
2023-02-12T12:06:49.624Z,13.07
2023-02-12T12:10:07.673Z,14.07
2023-02-12T12:13:07.597Z,14.50
2023-02-12T12:16:25.702Z,13.73
2023-02-12T12:19:56.958Z,13.73
2023-02-12T12:23:06.284Z,13.68
2023-02-12T12:25:59.166Z,15.13
2023-02-12T12:29:06.767Z,14.10
2023-02-12T12:32:03.482Z,12.82
2023-02-12T12:34:50.805Z,12.57
2023-02-12T12:38:12.780Z,13.35
2023-02-12T12:41:27.215Z,11.10
2023-02-12T12:44:17.679Z,9.85
2023-02-12T12:47:22.151Z,9.50
2023-02-12T12:50:32.043Z,10.23
2023-02-12T12:53:25.618Z,9.50
2023-02-12T12:56:40.304Z,9.98
2023-02-12T12:59:42.449Z,10.40
2023-02-12T13:02:50.595Z,9.48
2023-02-12T13:05:59.618Z,10.35
2023-02-12T13:09:11.165Z,10.20
2023-02-12T13:12:23.031Z,10.57
2023-02-12T13:15:25.594Z,10.20
2023-02-12T13:18:34.433Z,10.50
2023-02-12T13:21:45.919Z,9.95
2023-02-12T13:24:46.678Z,10.23
2023-02-12T13:27:40.749Z,8.40
2023-02-12T13:30:46.657Z,8.30
2023-02-12T13:33:42.289Z,9.00
2023-02-12T13:36:31.623Z,8.38
2023-02-12T13:39:24.862Z,9.77
2023-02-12T13:42:21.300Z,9.85
2023-02-12T13:45:52.495Z,9.20
2023-02-12T13:49:08.869Z,8.07
2023-02-12T13:52:01.590Z,8.00
2023-02-12T13:57:43.403Z,7.47
2023-02-12T14:00:52.559Z,6.78
2023-02-12T14:03:40.765Z,8.18
2023-02-12T14:06:35.317Z,7.25
2023-02-12T14:09:29.958Z,5.68
2023-02-12T14:12:26.434Z,5.25
2023-02-12T14:15:39.167Z,5.32
2023-02-12T14:18:33.117Z,4.55
2023-02-12T14:21:29.738Z,9.93
2023-02-12T14:24:35.962Z,5.10
2023-02-12T14:27:52.519Z,5.20
2023-02-12T14:30:40.652Z,6.43
2023-02-12T14:33:28.534Z,4.22
2023-02-12T14:36:40.350Z,4.47
2023-02-12T14:39:29.928Z,4.72
2023-02-12T14:42:17.257Z,4.40
2023-02-12T14:45:24.625Z,4.22
2023-02-12T14:48:49.672Z,4.57
2023-02-12T14:51:51.846Z,4.00
2023-02-12T14:54:42.109Z,4.20
2023-02-12T14:57:43.588Z,3.92
2023-02-12T15:00:40.476Z,4.18
2023-02-12T15:03:49.521Z,3.95
2023-02-12T15:06:44.679Z,3.67
2023-02-12T15:09:50.698Z,3.40
2023-02-12T15:13:09.211Z,3.53
2023-02-12T15:16:01.182Z,4.03
2023-02-12T15:19:25.627Z,4.35
2023-02-12T15:22:40.319Z,3.88
2023-02-12T15:25:30.471Z,3.65
2023-02-12T15:28:25.925Z,3.45
2023-02-12T15:31:27.501Z,3.35
2023-02-12T15:34:22.052Z,4.05
2023-02-12T15:37:10.124Z,3.92
2023-02-12T15:40:01.646Z,4.35
2023-02-12T15:43:01.304Z,3.60
2023-02-12T15:45:53.058Z,3.60
2023-02-12T15:48:43.317Z,3.73
2023-02-12T15:51:42.012Z,4.25
2023-02-12T15:54:29.950Z,3.97
2023-02-12T15:57:27.120Z,3.75
2023-02-12T16:00:55.162Z,4.18
2023-02-12T16:03:54.270Z,3.88
2023-02-12T16:06:41.865Z,3.63
2023-02-12T16:09:32.379Z,3.67
2023-02-12T16:12:23.431Z,3.75
2023-02-12T16:15:28.659Z,3.80
2023-02-12T16:18:26.628Z,3.92
2023-02-12T16:21:24.519Z,3.72
2023-02-12T16:24:42.277Z,4.35
2023-02-12T16:27:35.922Z,4.60
2023-02-12T16:30:30.915Z,4.70
2023-02-12T16:34:00.869Z,5.18
2023-02-12T16:36:52.623Z,5.88
2023-02-12T16:40:01.547Z,6.40
2023-02-12T16:42:51.941Z,6.85
2023-02-12T16:45:41.511Z,5.47
2023-02-12T16:48:32.348Z,5.75
2023-02-12T16:51:22.846Z,13.02
2023-02-12T16:54:34.657Z,12.10
2023-02-12T16:57:22.150Z,9.70
2023-02-12T17:00:12.527Z,8.88
2023-02-12T17:02:59.794Z,14.13
2023-02-12T17:05:47.364Z,9.57
2023-02-12T17:08:37.296Z,8.05
2023-02-12T17:11:27.735Z,8.07
2023-02-12T17:14:18.346Z,9.30
2023-02-12T17:17:05.818Z,7.97
2023-02-12T17:19:53.456Z,8.45
2023-02-12T17:22:51.520Z,8.23
2023-02-12T17:25:43.795Z,9.57
2023-02-12T17:28:32.750Z,8.77
2023-02-12T17:31:20.922Z,10.05
2023-02-12T17:34:08.429Z,9.02
2023-02-12T17:37:00.952Z,9.15
2023-02-12T17:39:48.267Z,11.43
2023-02-12T17:42:35.582Z,11.73
2023-02-12T17:45:23.099Z,10.70
2023-02-12T17:48:12.588Z,13.25
2023-02-12T17:51:01.925Z,13.35
2023-02-12T17:53:53.067Z,14.73
2023-02-12T17:56:40.543Z,13.05
2023-02-12T17:59:37.783Z,12.95
2023-02-12T18:02:27.846Z,13.23
2023-02-12T18:05:16.759Z,13.60
2023-02-12T18:08:04.267Z,12.80
2023-02-12T18:10:51.770Z,14.00
2023-02-12T18:13:44.113Z,13.50
2023-02-12T18:16:37.572Z,15.30
2023-02-12T18:19:30.261Z,15.25
2023-02-12T18:25:09.024Z,14.13
2023-02-12T18:27:56.664Z,15.45
2023-02-12T18:30:44.676Z,15.13
2023-02-12T18:33:33.091Z,13.93
2023-02-12T18:36:21.811Z,13.98
2023-02-12T18:39:09.308Z,15.43
2023-02-12T18:41:56.752Z,15.23
2023-02-12T18:44:44.236Z,15.88
2023-02-12T18:47:32.138Z,16.00
2023-02-12T18:50:19.778Z,15.52
2023-02-12T18:53:07.661Z,16.55
2023-02-12T18:55:55.073Z,16.42
2023-02-12T18:58:42.486Z,18.23
2023-02-12T19:01:29.969Z,18.20
2023-02-12T19:04:23.548Z,17.17
2023-02-12T19:07:11.260Z,18.05
2023-02-12T19:09:58.799Z,19.77
2023-02-12T19:12:46.265Z,17.50
2023-02-12T19:15:33.909Z,20.67
2023-02-12T19:18:21.424Z,19.85
2023-02-12T19:21:12.029Z,20.48
2023-02-12T19:24:01.461Z,20.30
2023-02-12T19:26:52.587Z,19.20
2023-02-12T19:29:41.600Z,19.17
2023-02-12T19:32:33.694Z,19.25
2023-02-12T19:35:21.386Z,19.85
2023-02-12T19:38:08.874Z,20.50
2023-02-12T19:41:17.550Z,20.20
2023-02-12T19:44:23.421Z,20.83
2023-02-12T19:47:27.291Z,23.38
2023-02-12T19:50:22.355Z,21.60
2023-02-12T19:53:15.999Z,21.75
2023-02-12T19:56:10.574Z,21.48
2023-02-12T19:59:04.835Z,21.75
2023-02-12T20:01:58.732Z,20.75
2023-02-12T20:04:47.667Z,21.27
2023-02-12T20:07:40.038Z,21.67
2023-02-12T20:10:35.658Z,23.08
2023-02-12T20:13:24.676Z,23.73
2023-02-12T20:16:21.343Z,25.77
2023-02-12T20:19:12.411Z,29.90
2023-02-12T20:22:06.371Z,27.95
2023-02-12T20:25:02.233Z,29.67
2023-02-12T20:27:51.562Z,29.92
2023-02-12T20:30:43.398Z,30.58
2023-02-12T20:33:31.007Z,29.67
2023-02-12T20:36:18.547Z,29.40
2023-02-12T20:39:09.072Z,31.65
2023-02-12T20:41:57.127Z,33.28
2023-02-12T20:44:46.929Z,33.65
2023-02-12T20:47:34.602Z,33.05
2023-02-12T20:50:25.054Z,32.95
2023-02-12T20:53:12.648Z,33.10
2023-02-12T20:56:05.792Z,35.58
2023-02-12T20:58:53.960Z,35.38
2023-02-12T21:01:42.620Z,37.50
2023-02-12T21:04:31.888Z,38.22
2023-02-12T21:07:20.103Z,36.10
2023-02-12T21:10:08.219Z,37.97
2023-02-12T21:12:55.694Z,36.92
2023-02-12T21:15:48.719Z,36.47
2023-02-12T21:18:38.974Z,35.30
2023-02-12T21:21:31.893Z,36.03
2023-02-12T21:24:23.068Z,35.83
2023-02-12T21:27:12.026Z,39.60
2023-02-12T21:30:04.250Z,39.78
2023-02-12T21:32:54.226Z,42.70
2023-02-12T21:35:47.141Z,42.83
2023-02-12T21:38:38.194Z,43.35
2023-02-12T21:41:28.578Z,45.00
2023-02-12T21:44:20.682Z,49.03
2023-02-12T21:47:10.676Z,56.22
2023-02-12T21:49:58.006Z,58.28
2023-02-12T21:52:45.215Z,51.50
2023-02-12T21:55:41.324Z,56.58
2023-02-12T21:58:29.703Z,53.17
2023-02-12T22:01:23.099Z,55.50
2023-02-12T22:04:13.461Z,49.03
2023-02-12T22:07:07.040Z,49.80
2023-02-12T22:10:01.017Z,50.67
2023-02-12T22:12:50.729Z,49.05
2023-02-12T22:15:38.100Z,48.38
2023-02-12T22:18:25.362Z,47.63
2023-02-12T22:21:14.514Z,48.75
2023-02-12T22:24:06.984Z,45.05
2023-02-12T22:26:57.829Z,47.90
2023-02-12T22:29:45.017Z,44.55
2023-02-12T22:32:34.922Z,43.58
2023-02-12T22:35:25.007Z,44.40
2023-02-12T22:38:12.172Z,46.25
2023-02-12T22:41:02.538Z,46.92
2023-02-12T22:43:49.831Z,46.25
2023-02-12T22:46:37.054Z,45.20
2023-02-12T22:49:51.846Z,46.75
2023-02-12T22:52:39.100Z,44.92
2023-02-12T22:55:26.397Z,47.28
2023-02-12T22:58:13.825Z,45.97
2023-02-12T23:01:15.440Z,49.25
2023-02-12T23:04:05.178Z,48.38
2023-02-12T23:06:52.576Z,49.22
2023-02-12T23:09:42.047Z,49.78
2023-02-12T23:12:29.338Z,51.47
2023-02-12T23:15:16.709Z,50.42
2023-02-12T23:18:04.059Z,49.05
2023-02-12T23:20:55.550Z,49.72
2023-02-12T23:23:42.957Z,49.43
2023-02-12T23:26:32.958Z,50.20
2023-02-12T23:29:23.313Z,50.13
2023-02-12T23:32:10.418Z,50.80
2023-02-12T23:34:57.602Z,53.30
2023-02-12T23:37:44.798Z,52.80
2023-02-12T23:40:32.813Z,53.65
2023-02-12T23:43:20.061Z,52.65
2023-02-12T23:46:09.656Z,51.70
2023-02-12T23:48:59.518Z,50.90
2023-02-12T23:51:49.473Z,51.67
2023-02-12T23:54:36.680Z,51.08
2023-02-12T23:57:24.163Z,53.30
